createdAt,value
2022-10-02T00:02:36.084Z,14.25
2022-10-02T00:07:50.335Z,10.93
2022-10-02T00:13:02.075Z,13.35
2022-10-02T00:18:19.281Z,10.15
2022-10-02T00:23:37.865Z,8.85
2022-10-02T00:28:46.778Z,9.00
2022-10-02T00:34:09.989Z,10.82
2022-10-02T00:39:46.556Z,9.40
2022-10-02T00:45:19.873Z,10.70
2022-10-02T00:51:05.951Z,9.93
2022-10-02T00:56:41.976Z,10.40
2022-10-02T01:01:54.130Z,9.90
2022-10-02T01:06:56.525Z,10.70
2022-10-02T01:11:59.485Z,9.25
2022-10-02T01:17:02.611Z,12.43
2022-10-02T01:22:17.502Z,11.73
2022-10-02T01:27:19.785Z,11.27
2022-10-02T01:32:25.992Z,9.93
2022-10-02T01:37:31.341Z,12.23
2022-10-02T01:42:34.184Z,12.00
2022-10-02T01:47:50.807Z,15.13
2022-10-02T01:53:15.730Z,14.90
2022-10-02T01:58:45.904Z,14.00
2022-10-02T02:04:15.293Z,13.20
2022-10-02T02:09:33.848Z,12.57
2022-10-02T02:14:42.320Z,15.40
2022-10-02T02:19:59.765Z,10.15
2022-10-02T02:25:12.129Z,11.50
2022-10-02T02:30:15.293Z,12.95
2022-10-02T02:35:33.771Z,12.00
2022-10-02T02:40:41.860Z,9.30
2022-10-02T02:46:00.012Z,9.95
2022-10-02T02:51:09.487Z,9.10
2022-10-02T02:56:16.157Z,14.55
2022-10-02T03:01:18.053Z,10.57
2022-10-02T03:06:31.573Z,10.57
2022-10-02T03:11:48.482Z,10.25
2022-10-02T03:17:10.880Z,9.90
2022-10-02T03:22:21.832Z,11.05
2022-10-02T03:27:32.598Z,11.40
2022-10-02T03:32:39.291Z,10.00
2022-10-02T03:37:43.592Z,12.43
2022-10-02T03:42:45.571Z,13.82
2022-10-02T03:47:47.593Z,11.85
2022-10-02T03:52:51.871Z,12.15
2022-10-02T03:57:55.021Z,10.27
2022-10-02T04:02:58.948Z,16.10
2022-10-02T04:08:09.405Z,10.32
2022-10-02T04:13:20.521Z,13.77
2022-10-02T04:18:38.743Z,9.63
2022-10-02T04:23:50.497Z,18.55
2022-10-02T04:29:01.061Z,11.35
2022-10-02T04:34:07.708Z,14.18
2022-10-02T04:39:15.658Z,13.38
2022-10-02T04:44:31.053Z,13.75
2022-10-02T04:50:14.970Z,11.43
2022-10-02T04:55:57.149Z,13.93
2022-10-02T05:01:09.341Z,12.50
2022-10-02T05:06:24.581Z,11.02
2022-10-02T05:11:38.429Z,13.00
2022-10-02T05:22:08.470Z,12.57
2022-10-02T05:27:19.531Z,9.90
2022-10-02T05:32:33.460Z,9.25
2022-10-02T05:37:35.224Z,9.35
2022-10-02T05:42:47.808Z,10.07
2022-10-02T05:48:09.973Z,9.07
2022-10-02T05:53:31.645Z,9.05
2022-10-02T05:58:56.641Z,9.02
2022-10-02T06:04:24.345Z,10.50
2022-10-02T06:10:23.116Z,11.27
2022-10-02T06:15:32.501Z,7.00
2022-10-02T06:20:40.722Z,9.25
2022-10-02T06:25:56.266Z,7.90
2022-10-02T06:31:21.777Z,7.15
2022-10-02T06:36:52.733Z,8.07
2022-10-02T06:41:57.390Z,6.95
2022-10-02T06:47:17.692Z,5.68
2022-10-02T06:52:45.026Z,10.52
2022-10-02T07:03:51.081Z,7.03
2022-10-02T07:09:23.353Z,7.97
2022-10-02T07:15:05.952Z,7.15
2022-10-02T07:20:38.624Z,9.73
2022-10-02T07:26:18.986Z,8.90
2022-10-02T07:31:32.788Z,6.82
2022-10-02T07:37:08.782Z,7.68
2022-10-02T07:42:17.631Z,8.50
2022-10-02T07:47:44.383Z,9.30
2022-10-02T07:53:20.425Z,9.23
2022-10-02T07:58:36.912Z,7.57
2022-10-02T08:03:50.249Z,10.13
2022-10-02T08:09:14.462Z,11.00
2022-10-02T08:14:38.252Z,7.18
2022-10-02T08:24:53.841Z,10.10
2022-10-02T08:29:59.949Z,9.98
2022-10-02T08:35:05.993Z,8.32
2022-10-02T08:40:19.883Z,8.32
2022-10-02T08:45:36.929Z,12.05
2022-10-02T08:51:18.551Z,7.63
2022-10-02T08:57:01.693Z,7.20
2022-10-02T09:02:11.236Z,10.60
2022-10-02T09:07:26.008Z,10.65
2022-10-02T09:13:11.250Z,8.68
2022-10-02T09:18:17.803Z,12.03
2022-10-02T09:23:38.130Z,10.20
2022-10-02T09:29:28.112Z,9.10
2022-10-02T09:34:52.330Z,11.35
2022-10-02T09:40:09.864Z,12.18
2022-10-02T09:45:44.022Z,7.18
2022-10-02T09:51:19.840Z,10.98
2022-10-02T09:56:25.551Z,8.57
2022-10-02T10:01:45.951Z,8.30
2022-10-02T10:06:54.133Z,13.63
2022-10-02T10:12:14.605Z,8.82
2022-10-02T10:17:25.654Z,6.63
2022-10-02T10:22:39.062Z,8.45
2022-10-02T10:27:59.309Z,10.48
2022-10-02T10:33:27.967Z,10.88
2022-10-02T10:38:52.189Z,8.60
2022-10-02T10:44:18.721Z,9.32
2022-10-02T10:49:36.060Z,14.30
2022-10-02T10:54:45.080Z,12.45
2022-10-02T11:00:17.937Z,11.77
2022-10-02T11:05:47.448Z,15.05
2022-10-02T11:11:19.820Z,7.88
2022-10-02T11:16:30.972Z,9.70
2022-10-02T11:21:44.808Z,9.13
2022-10-02T11:31:57.087Z,13.30
2022-10-02T11:37:24.327Z,10.75
2022-10-02T11:42:58.158Z,8.73
2022-10-02T11:48:20.212Z,9.07
2022-10-02T11:54:03.316Z,11.02
2022-10-02T11:59:30.716Z,9.98
2022-10-02T12:05:04.474Z,8.73
2022-10-02T12:10:45.120Z,14.15
2022-10-02T12:16:26.366Z,13.48
2022-10-02T12:21:50.030Z,8.73
2022-10-02T12:27:17.333Z,11.20
2022-10-02T12:32:57.165Z,15.30
2022-10-02T12:38:27.058Z,11.10
2022-10-02T12:43:59.230Z,8.85
2022-10-02T12:49:20.906Z,6.53
2022-10-02T12:54:37.803Z,13.25
2022-10-02T12:59:55.785Z,10.43
2022-10-02T13:05:28.082Z,10.68
2022-10-02T13:10:57.365Z,8.52
2022-10-02T13:16:34.500Z,9.32
2022-10-02T13:21:48.217Z,10.88
2022-10-02T13:32:25.823Z,9.93
2022-10-02T13:37:43.701Z,9.80
2022-10-02T13:43:05.920Z,9.57
2022-10-02T13:48:19.682Z,7.25
2022-10-02T13:53:30.622Z,9.50
2022-10-02T13:58:58.386Z,8.88
2022-10-02T14:04:30.038Z,7.80
2022-10-02T14:09:48.367Z,11.38
2022-10-02T14:15:08.938Z,9.75
2022-10-02T14:20:29.533Z,9.52
2022-10-02T14:25:53.333Z,10.18
2022-10-02T14:36:32.288Z,9.52
2022-10-02T14:41:58.811Z,14.20
2022-10-02T14:47:17.196Z,8.82
2022-10-02T14:52:27.902Z,6.82
2022-10-02T14:57:29.787Z,7.20
2022-10-02T15:02:54.594Z,9.52
2022-10-02T15:07:57.738Z,12.73
2022-10-02T15:13:10.545Z,15.18
2022-10-02T15:18:58.130Z,18.00
2022-10-02T15:24:25.710Z,13.93
2022-10-02T15:29:36.832Z,13.00
2022-10-02T15:34:55.331Z,20.17
2022-10-02T15:40:19.268Z,35.10
2022-10-02T15:45:33.530Z,31.67
2022-10-02T15:50:47.577Z,63.60
2022-10-02T15:55:55.863Z,41.95
2022-10-02T16:01:39.239Z,62.88
2022-10-02T16:07:10.221Z,87.10
2022-10-02T16:12:27.299Z,60.42
2022-10-02T16:17:48.587Z,37.00
2022-10-02T16:22:58.591Z,46.00
2022-10-02T16:28:06.531Z,78.63
2022-10-02T16:33:17.005Z,62.35
2022-10-02T16:38:25.160Z,32.38
2022-10-02T16:43:34.791Z,25.35
2022-10-02T16:49:01.481Z,39.00
2022-10-02T16:54:17.423Z,85.65
2022-10-02T16:59:26.041Z,28.85
2022-10-02T17:05:03.523Z,24.02
2022-10-02T17:10:20.543Z,27.15
2022-10-02T17:15:40.654Z,23.67
2022-10-02T17:20:56.197Z,33.33
2022-10-02T17:25:58.780Z,41.35
2022-10-02T17:31:00.907Z,42.90
2022-10-02T17:36:19.634Z,60.53
2022-10-02T17:41:42.428Z,61.42
2022-10-02T17:47:08.673Z,32.53
2022-10-02T17:52:35.113Z,30.17
2022-10-02T17:58:13.077Z,38.13
2022-10-02T18:03:55.718Z,81.18
2022-10-02T18:09:12.886Z,62.42
2022-10-02T18:14:21.004Z,32.00
2022-10-02T18:19:27.980Z,64.40
2022-10-02T18:24:46.102Z,102.30
2022-10-02T18:29:59.901Z,65.40
2022-10-02T18:35:24.224Z,73.57
2022-10-02T18:40:37.074Z,37.35
2022-10-02T18:45:56.021Z,49.93
2022-10-02T18:51:01.139Z,65.68
2022-10-02T18:56:08.587Z,50.67
2022-10-02T19:01:16.581Z,50.20
2022-10-02T19:06:27.680Z,68.07
2022-10-02T19:11:39.050Z,41.72
2022-10-02T19:16:59.283Z,84.75
2022-10-02T19:22:09.644Z,45.90
2022-10-02T19:27:44.635Z,44.25
2022-10-02T19:32:55.118Z,36.60
2022-10-02T19:38:12.717Z,36.67
2022-10-02T19:43:26.597Z,33.60
2022-10-02T19:48:30.962Z,30.27
2022-10-02T19:53:40.922Z,23.67
2022-10-02T19:58:49.796Z,26.73
2022-10-02T20:04:03.600Z,18.77
2022-10-02T20:14:17.478Z,13.30
2022-10-02T20:19:34.482Z,14.75
2022-10-02T20:24:45.261Z,14.88
2022-10-02T20:29:52.802Z,15.80
2022-10-02T20:35:02.835Z,17.30
2022-10-02T20:40:17.065Z,14.35
2022-10-02T20:45:23.444Z,14.77
2022-10-02T20:50:40.506Z,16.55
2022-10-02T20:55:45.260Z,15.27
2022-10-02T21:00:56.836Z,23.15
2022-10-02T21:06:46.870Z,16.85
2022-10-02T21:12:04.077Z,17.65
2022-10-02T21:17:08.904Z,18.10
2022-10-02T21:22:23.182Z,17.80
2022-10-02T21:28:03.507Z,18.10
2022-10-02T21:33:14.422Z,16.40
2022-10-02T21:38:28.178Z,16.48
2022-10-02T21:48:50.671Z,11.82
2022-10-02T21:54:02.106Z,9.10
2022-10-02T21:59:19.563Z,8.18
2022-10-02T22:04:52.621Z,8.07
2022-10-02T22:10:30.267Z,7.47
2022-10-02T22:15:50.698Z,8.07
2022-10-02T22:21:11.445Z,8.10
2022-10-02T22:26:46.879Z,6.53
2022-10-02T22:32:34.402Z,6.35
2022-10-02T22:37:54.894Z,7.22
2022-10-02T22:43:04.979Z,7.70
2022-10-02T22:48:14.552Z,7.45
2022-10-02T22:53:35.489Z,8.48
2022-10-02T22:58:44.392Z,10.05
2022-10-02T23:04:01.745Z,8.18
2022-10-02T23:09:30.036Z,8.70
2022-10-02T23:14:53.130Z,10.05
2022-10-02T23:20:19.928Z,10.50
2022-10-02T23:25:30.616Z,9.02
2022-10-02T23:30:40.778Z,11.65
2022-10-02T23:35:45.516Z,8.10
2022-10-02T23:41:26.540Z,14.07
2022-10-02T23:47:00.039Z,9.18
2022-10-02T23:52:37.907Z,10.15
2022-10-02T23:58:13.415Z,15.80
